sensor_id;sensor_type;location;lat;lon;timestamp;temperature;humidity
22418;DHT22;11376;50.932;4.442;2022-07-18T00:01:57;20.10;99.90
22418;DHT22;11376;50.932;4.442;2022-07-18T00:04:24;20.10;99.90
22418;DHT22;11376;50.932;4.442;2022-07-18T00:06:50;20.00;99.90
22418;DHT22;11376;50.932;4.442;2022-07-18T00:09:15;20.00;99.90
22418;DHT22;11376;50.932;4.442;2022-07-18T00:11:41;19.90;99.90
22418;DHT22;11376;50.932;4.442;2022-07-18T00:14:07;19.90;99.90
22418;DHT22;11376;50.932;4.442;2022-07-18T00:16:32;19.90;99.90
22418;DHT22;11376;50.932;4.442;2022-07-18T00:18:58;19.90;99.90
22418;DHT22;11376;50.932;4.442;2022-07-18T00:21:25;19.80;99.90
22418;DHT22;11376;50.932;4.442;2022-07-18T00:23:51;19.70;99.90
22418;DHT22;11376;50.932;4.442;2022-07-18T00:26:17;19.70;99.90
22418;DHT22;11376;50.932;4.442;2022-07-18T00:28:42;19.70;99.90
22418;DHT22;11376;50.932;4.442;2022-07-18T00:31:08;19.60;99.90
22418;DHT22;11376;50.932;4.442;2022-07-18T00:33:33;19.50;99.90
22418;DHT22;11376;50.932;4.442;2022-07-18T00:35:59;19.50;99.90
22418;DHT22;11376;50.932;4.442;2022-07-18T00:38:25;19.50;99.90
22418;DHT22;11376;50.932;4.442;2022-07-18T00:40:50;19.40;99.90
22418;DHT22;11376;50.932;4.442;2022-07-18T00:43:16;19.40;99.90
22418;DHT22;11376;50.932;4.442;2022-07-18T00:45:46;19.30;99.90
22418;DHT22;11376;50.932;4.442;2022-07-18T00:48:11;19.30;99.90
22418;DHT22;11376;50.932;4.442;2022-07-18T00:50:37;19.30;99.90
22418;DHT22;11376;50.932;4.442;2022-07-18T00:53:03;19.20;99.90
22418;DHT22;11376;50.932;4.442;2022-07-18T00:55:31;19.20;99.90
22418;DHT22;11376;50.932;4.442;2022-07-18T00:57:57;19.20;99.90
22418;DHT22;11376;50.932;4.442;2022-07-18T01:00:23;19.20;99.90
22418;DHT22;11376;50.932;4.442;2022-07-18T01:03:07;19.20;99.90
22418;DHT22;11376;50.932;4.442;2022-07-18T01:05:33;19.20;99.90
22418;DHT22;11376;50.932;4.442;2022-07-18T01:07:58;19.10;99.90
22418;DHT22;11376;50.932;4.442;2022-07-18T01:10:24;19.10;99.90
22418;DHT22;11376;50.932;4.442;2022-07-18T01:12:50;19.10;99.90
22418;DHT22;11376;50.932;4.442;2022-07-18T01:15:15;19.00;99.90
22418;DHT22;11376;50.932;4.442;2022-07-18T01:17:41;19.00;99.90
22418;DHT22;11376;50.932;4.442;2022-07-18T01:20:07;19.00;99.90
22418;DHT22;11376;50.932;4.442;2022-07-18T01:22:33;18.90;99.90
22418;DHT22;11376;50.932;4.442;2022-07-18T01:24:59;18.90;99.90
22418;DHT22;11376;50.932;4.442;2022-07-18T01:27:25;18.90;99.90
22418;DHT22;11376;50.932;4.442;2022-07-18T01:29:52;18.90;99.90
22418;DHT22;11376;50.932;4.442;2022-07-18T01:32:19;18.90;99.90
22418;DHT22;11376;50.932;4.442;2022-07-18T01:34:46;18.80;99.90
22418;DHT22;11376;50.932;4.442;2022-07-18T01:37:13;18.80;99.90
22418;DHT22;11376;50.932;4.442;2022-07-18T01:39:38;18.80;99.90
22418;DHT22;11376;50.932;4.442;2022-07-18T01:42:06;18.70;99.90
22418;DHT22;11376;50.932;4.442;2022-07-18T01:44:33;18.70;99.90
22418;DHT22;11376;50.932;4.442;2022-07-18T01:46:59;18.70;99.90
22418;DHT22;11376;50.932;4.442;2022-07-18T01:49:26;18.70;99.90
22418;DHT22;11376;50.932;4.442;2022-07-18T01:51:53;18.60;99.90
22418;DHT22;11376;50.932;4.442;2022-07-18T01:54:27;18.50;99.90
22418;DHT22;11376;50.932;4.442;2022-07-18T01:56:53;18.50;99.90
22418;DHT22;11376;50.932;4.442;2022-07-18T01:59:19;18.50;99.90
22418;DHT22;11376;50.932;4.442;2022-07-18T02:01:45;18.40;99.90
22418;DHT22;11376;50.932;4.442;2022-07-18T02:04:11;18.40;99.90
22418;DHT22;11376;50.932;4.442;2022-07-18T02:06:37;18.40;99.90
22418;DHT22;11376;50.932;4.442;2022-07-18T02:09:04;18.40;99.90
22418;DHT22;11376;50.932;4.442;2022-07-18T02:11:29;18.30;99.90
22418;DHT22;11376;50.932;4.442;2022-07-18T02:13:55;18.30;99.90
22418;DHT22;11376;50.932;4.442;2022-07-18T02:16:21;18.40;99.90
22418;DHT22;11376;50.932;4.442;2022-07-18T02:18:46;18.30;99.90
22418;DHT22;11376;50.932;4.442;2022-07-18T02:21:12;18.30;99.90
22418;DHT22;11376;50.932;4.442;2022-07-18T02:23:39;18.20;99.90
22418;DHT22;11376;50.932;4.442;2022-07-18T02:26:06;18.20;99.90
22418;DHT22;11376;50.932;4.442;2022-07-18T02:28:31;18.20;99.90
22418;DHT22;11376;50.932;4.442;2022-07-18T02:30:57;18.10;99.90
22418;DHT22;11376;50.932;4.442;2022-07-18T02:33:23;18.10;99.90
22418;DHT22;11376;50.932;4.442;2022-07-18T02:35:48;18.10;99.90
22418;DHT22;11376;50.932;4.442;2022-07-18T02:38:14;18.00;99.90
22418;DHT22;11376;50.932;4.442;2022-07-18T02:40:40;18.00;99.90
22418;DHT22;11376;50.932;4.442;2022-07-18T02:43:05;18.00;99.90
22418;DHT22;11376;50.932;4.442;2022-07-18T02:45:31;18.00;99.90
22418;DHT22;11376;50.932;4.442;2022-07-18T02:47:56;17.90;99.90
22418;DHT22;11376;50.932;4.442;2022-07-18T02:50:22;17.90;99.90
22418;DHT22;11376;50.932;4.442;2022-07-18T02:52:48;17.90;99.90
22418;DHT22;11376;50.932;4.442;2022-07-18T02:55:15;17.90;99.90
22418;DHT22;11376;50.932;4.442;2022-07-18T02:57:43;17.80;99.90
22418;DHT22;11376;50.932;4.442;2022-07-18T03:00:11;17.80;99.90
22418;DHT22;11376;50.932;4.442;2022-07-18T03:02:37;17.80;99.90
22418;DHT22;11376;50.932;4.442;2022-07-18T03:05:04;17.80;99.90
22418;DHT22;11376;50.932;4.442;2022-07-18T03:07:29;17.80;99.90
22418;DHT22;11376;50.932;4.442;2022-07-18T03:09:55;17.80;99.90
22418;DHT22;11376;50.932;4.442;2022-07-18T03:12:21;17.70;99.90
22418;DHT22;11376;50.932;4.442;2022-07-18T03:14:47;17.70;99.90
22418;DHT22;11376;50.932;4.442;2022-07-18T03:17:12;17.70;99.90
22418;DHT22;11376;50.932;4.442;2022-07-18T03:19:38;17.70;99.90
22418;DHT22;11376;50.932;4.442;2022-07-18T03:22:04;17.70;99.90
22418;DHT22;11376;50.932;4.442;2022-07-18T03:24:30;17.70;99.90
22418;DHT22;11376;50.932;4.442;2022-07-18T03:26:56;17.70;99.90
22418;DHT22;11376;50.932;4.442;2022-07-18T03:29:22;17.70;99.90
22418;DHT22;11376;50.932;4.442;2022-07-18T03:31:47;17.70;99.90
22418;DHT22;11376;50.932;4.442;2022-07-18T03:34:13;17.60;99.90
22418;DHT22;11376;50.932;4.442;2022-07-18T03:36:39;17.60;99.90
22418;DHT22;11376;50.932;4.442;2022-07-18T03:39:06;17.60;99.90
22418;DHT22;11376;50.932;4.442;2022-07-18T03:41:32;17.60;99.90
22418;DHT22;11376;50.932;4.442;2022-07-18T03:43:58;17.50;99.90
22418;DHT22;11376;50.932;4.442;2022-07-18T03:46:23;17.50;99.90
22418;DHT22;11376;50.932;4.442;2022-07-18T03:48:49;17.50;99.90
22418;DHT22;11376;50.932;4.442;2022-07-18T03:51:15;17.50;99.90
22418;DHT22;11376;50.932;4.442;2022-07-18T03:53:40;17.40;99.90
22418;DHT22;11376;50.932;4.442;2022-07-18T03:56:06;17.40;99.90
22418;DHT22;11376;50.932;4.442;2022-07-18T03:58:32;17.40;99.90
22418;DHT22;11376;50.932;4.442;2022-07-18T04:00:57;17.40;99.90
22418;DHT22;11376;50.932;4.442;2022-07-18T04:03:23;17.40;99.90
22418;DHT22;11376;50.932;4.442;2022-07-18T04:05:49;17.40;99.90
22418;DHT22;11376;50.932;4.442;2022-07-18T04:08:15;17.40;99.90
22418;DHT22;11376;50.932;4.442;2022-07-18T04:10:41;17.40;99.90
22418;DHT22;11376;50.932;4.442;2022-07-18T04:13:07;17.40;99.90
22418;DHT22;11376;50.932;4.442;2022-07-18T04:15:33;17.40;99.90
22418;DHT22;11376;50.932;4.442;2022-07-18T04:17:59;17.50;99.90
22418;DHT22;11376;50.932;4.442;2022-07-18T04:20:25;17.50;99.90
22418;DHT22;11376;50.932;4.442;2022-07-18T04:22:57;17.50;99.90
22418;DHT22;11376;50.932;4.442;2022-07-18T04:25:28;17.60;99.90
22418;DHT22;11376;50.932;4.442;2022-07-18T04:27:54;17.60;99.90
22418;DHT22;11376;50.932;4.442;2022-07-18T04:30:23;17.60;99.90
22418;DHT22;11376;50.932;4.442;2022-07-18T04:32:49;17.60;99.90
22418;DHT22;11376;50.932;4.442;2022-07-18T04:35:15;17.60;99.90
22418;DHT22;11376;50.932;4.442;2022-07-18T04:37:41;17.70;99.90
22418;DHT22;11376;50.932;4.442;2022-07-18T04:40:08;17.70;99.90
22418;DHT22;11376;50.932;4.442;2022-07-18T04:42:34;17.80;99.90
22418;DHT22;11376;50.932;4.442;2022-07-18T04:45:01;17.80;99.90
22418;DHT22;11376;50.932;4.442;2022-07-18T04:47:27;17.90;99.90
22418;DHT22;11376;50.932;4.442;2022-07-18T04:49:53;17.90;99.90
22418;DHT22;11376;50.932;4.442;2022-07-18T04:52:19;18.00;99.90
22418;DHT22;11376;50.932;4.442;2022-07-18T04:54:45;18.00;99.90
22418;DHT22;11376;50.932;4.442;2022-07-18T04:57:10;18.10;99.90
22418;DHT22;11376;50.932;4.442;2022-07-18T04:59:46;18.10;99.90
22418;DHT22;11376;50.932;4.442;2022-07-18T05:02:12;18.20;99.90
22418;DHT22;11376;50.932;4.442;2022-07-18T05:04:38;18.30;99.90
22418;DHT22;11376;50.932;4.442;2022-07-18T05:07:05;18.30;99.90
22418;DHT22;11376;50.932;4.442;2022-07-18T05:09:32;18.40;99.90
22418;DHT22;11376;50.932;4.442;2022-07-18T05:11:57;18.40;99.90
22418;DHT22;11376;50.932;4.442;2022-07-18T05:14:23;18.50;99.90
22418;DHT22;11376;50.932;4.442;2022-07-18T05:16:49;18.60;99.90
22418;DHT22;11376;50.932;4.442;2022-07-18T05:19:15;18.70;99.90
22418;DHT22;11376;50.932;4.442;2022-07-18T05:21:44;18.80;99.90
22418;DHT22;11376;50.932;4.442;2022-07-18T05:24:10;18.90;99.90
22418;DHT22;11376;50.932;4.442;2022-07-18T05:26:36;18.90;99.90
22418;DHT22;11376;50.932;4.442;2022-07-18T05:29:02;19.00;99.90
22418;DHT22;11376;50.932;4.442;2022-07-18T05:31:28;19.20;99.90
22418;DHT22;11376;50.932;4.442;2022-07-18T05:33:54;19.20;99.90
22418;DHT22;11376;50.932;4.442;2022-07-18T05:36:19;19.30;99.90
22418;DHT22;11376;50.932;4.442;2022-07-18T05:38:45;19.40;99.90
22418;DHT22;11376;50.932;4.442;2022-07-18T05:41:11;19.50;99.90
22418;DHT22;11376;50.932;4.442;2022-07-18T05:43:36;19.60;99.90
22418;DHT22;11376;50.932;4.442;2022-07-18T05:46:02;19.70;99.90
22418;DHT22;11376;50.932;4.442;2022-07-18T05:48:28;19.80;99.90
22418;DHT22;11376;50.932;4.442;2022-07-18T05:50:54;19.90;99.90
22418;DHT22;11376;50.932;4.442;2022-07-18T05:53:19;20.10;99.90
22418;DHT22;11376;50.932;4.442;2022-07-18T05:55:45;20.20;99.90
22418;DHT22;11376;50.932;4.442;2022-07-18T05:58:10;20.30;99.90
22418;DHT22;11376;50.932;4.442;2022-07-18T06:00:37;20.50;99.90
22418;DHT22;11376;50.932;4.442;2022-07-18T06:03:03;20.60;99.90
22418;DHT22;11376;50.932;4.442;2022-07-18T06:05:29;20.70;99.90
22418;DHT22;11376;50.932;4.442;2022-07-18T06:07:55;20.80;99.90
22418;DHT22;11376;50.932;4.442;2022-07-18T06:10:22;21.00;99.90
22418;DHT22;11376;50.932;4.442;2022-07-18T06:12:49;21.10;99.90
22418;DHT22;11376;50.932;4.442;2022-07-18T06:15:15;21.30;99.90
22418;DHT22;11376;50.932;4.442;2022-07-18T06:17:41;21.50;99.90
22418;DHT22;11376;50.932;4.442;2022-07-18T06:20:07;21.60;99.90
22418;DHT22;11376;50.932;4.442;2022-07-18T06:22:34;21.80;99.90
22418;DHT22;11376;50.932;4.442;2022-07-18T06:25:00;21.90;99.90
22418;DHT22;11376;50.932;4.442;2022-07-18T06:27:26;22.00;99.90
22418;DHT22;11376;50.932;4.442;2022-07-18T06:29:52;22.20;99.90
22418;DHT22;11376;50.932;4.442;2022-07-18T06:32:17;22.30;99.90
22418;DHT22;11376;50.932;4.442;2022-07-18T06:34:43;22.40;99.90
22418;DHT22;11376;50.932;4.442;2022-07-18T06:37:08;22.50;99.90
22418;DHT22;11376;50.932;4.442;2022-07-18T06:39:34;22.50;99.90
22418;DHT22;11376;50.932;4.442;2022-07-18T06:42:00;22.70;99.90
22418;DHT22;11376;50.932;4.442;2022-07-18T06:44:25;22.80;99.90
22418;DHT22;11376;50.932;4.442;2022-07-18T06:46:51;22.90;99.90
22418;DHT22;11376;50.932;4.442;2022-07-18T06:49:18;23.10;99.90
22418;DHT22;11376;50.932;4.442;2022-07-18T06:51:44;23.20;99.90
22418;DHT22;11376;50.932;4.442;2022-07-18T06:54:09;23.50;99.90
22418;DHT22;11376;50.932;4.442;2022-07-18T06:56:35;23.70;99.90
22418;DHT22;11376;50.932;4.442;2022-07-18T06:59:01;23.80;99.90
22418;DHT22;11376;50.932;4.442;2022-07-18T07:01:26;23.90;99.90
22418;DHT22;11376;50.932;4.442;2022-07-18T07:03:52;23.90;99.90
22418;DHT22;11376;50.932;4.442;2022-07-18T07:06:18;24.10;99.90
22418;DHT22;11376;50.932;4.442;2022-07-18T07:08:43;24.20;99.90
22418;DHT22;11376;50.932;4.442;2022-07-18T07:11:09;24.30;99.90
22418;DHT22;11376;50.932;4.442;2022-07-18T07:13:35;24.30;99.90
22418;DHT22;11376;50.932;4.442;2022-07-18T07:16:01;24.50;99.90
22418;DHT22;11376;50.932;4.442;2022-07-18T07:18:26;24.60;99.90
22418;DHT22;11376;50.932;4.442;2022-07-18T07:20:52;24.80;99.90
22418;DHT22;11376;50.932;4.442;2022-07-18T07:23:18;25.20;99.90
22418;DHT22;11376;50.932;4.442;2022-07-18T07:25:43;25.40;99.80
22418;DHT22;11376;50.932;4.442;2022-07-18T07:28:09;25.50;99.60
22418;DHT22;11376;50.932;4.442;2022-07-18T07:30:34;25.60;98.60
22418;DHT22;11376;50.932;4.442;2022-07-18T07:33:01;25.80;98.60
22418;DHT22;11376;50.932;4.442;2022-07-18T07:35:27;25.90;97.70
22418;DHT22;11376;50.932;4.442;2022-07-18T07:37:56;26.00;97.30
22418;DHT22;11376;50.932;4.442;2022-07-18T07:40:23;26.30;96.80
22418;DHT22;11376;50.932;4.442;2022-07-18T07:43:03;26.40;96.50
22418;DHT22;11376;50.932;4.442;2022-07-18T07:45:29;26.60;96.20
22418;DHT22;11376;50.932;4.442;2022-07-18T07:47:55;26.70;94.30
22418;DHT22;11376;50.932;4.442;2022-07-18T07:50:20;26.70;93.80
22418;DHT22;11376;50.932;4.442;2022-07-18T07:52:46;26.80;92.50
22418;DHT22;11376;50.932;4.442;2022-07-18T07:55:11;26.90;92.80
22418;DHT22;11376;50.932;4.442;2022-07-18T07:57:37;27.00;92.30
22418;DHT22;11376;50.932;4.442;2022-07-18T08:00:05;27.30;91.40
22418;DHT22;11376;50.932;4.442;2022-07-18T08:02:31;27.30;90.20
22418;DHT22;11376;50.932;4.442;2022-07-18T08:04:57;27.30;89.80
22418;DHT22;11376;50.932;4.442;2022-07-18T08:07:22;27.30;87.30
22418;DHT22;11376;50.932;4.442;2022-07-18T08:09:49;27.40;87.70
22418;DHT22;11376;50.932;4.442;2022-07-18T08:12:14;27.60;86.50
22418;DHT22;11376;50.932;4.442;2022-07-18T08:14:40;27.70;86.20
22418;DHT22;11376;50.932;4.442;2022-07-18T08:17:07;27.90;85.70
22418;DHT22;11376;50.932;4.442;2022-07-18T08:19:33;27.90;84.80
22418;DHT22;11376;50.932;4.442;2022-07-18T08:21:58;28.10;84.60
22418;DHT22;11376;50.932;4.442;2022-07-18T08:24:24;28.20;83.10
22418;DHT22;11376;50.932;4.442;2022-07-18T08:26:49;28.20;82.20
22418;DHT22;11376;50.932;4.442;2022-07-18T08:29:15;28.30;82.00
22418;DHT22;11376;50.932;4.442;2022-07-18T08:31:41;28.50;79.90
22418;DHT22;11376;50.932;4.442;2022-07-18T08:34:06;28.60;79.50
22418;DHT22;11376;50.932;4.442;2022-07-18T08:36:32;28.70;78.50
22418;DHT22;11376;50.932;4.442;2022-07-18T08:38:57;28.70;77.30
22418;DHT22;11376;50.932;4.442;2022-07-18T08:41:24;28.80;75.70
22418;DHT22;11376;50.932;4.442;2022-07-18T08:43:50;28.90;75.90
22418;DHT22;11376;50.932;4.442;2022-07-18T08:46:19;28.90;75.70
22418;DHT22;11376;50.932;4.442;2022-07-18T08:48:47;28.90;74.30
22418;DHT22;11376;50.932;4.442;2022-07-18T08:51:13;28.90;74.50
22418;DHT22;11376;50.932;4.442;2022-07-18T08:53:38;28.90;74.30
22418;DHT22;11376;50.932;4.442;2022-07-18T08:56:05;29.10;73.60
22418;DHT22;11376;50.932;4.442;2022-07-18T08:58:31;29.10;72.90
22418;DHT22;11376;50.932;4.442;2022-07-18T09:00:57;29.20;72.40
22418;DHT22;11376;50.932;4.442;2022-07-18T09:03:26;29.60;71.60
22418;DHT22;11376;50.932;4.442;2022-07-18T09:06:11;29.70;71.00
22418;DHT22;11376;50.932;4.442;2022-07-18T09:08:39;29.60;71.60
22418;DHT22;11376;50.932;4.442;2022-07-18T09:11:09;29.70;71.20
22418;DHT22;11376;50.932;4.442;2022-07-18T09:13:40;30.00;70.10
22418;DHT22;11376;50.932;4.442;2022-07-18T09:16:10;30.20;69.20
22418;DHT22;11376;50.932;4.442;2022-07-18T09:18:44;30.40;68.00
22418;DHT22;11376;50.932;4.442;2022-07-18T09:21:12;30.50;66.10
22418;DHT22;11376;50.932;4.442;2022-07-18T09:23:40;30.40;64.80
22418;DHT22;11376;50.932;4.442;2022-07-18T09:26:07;30.40;64.50
22418;DHT22;11376;50.932;4.442;2022-07-18T09:28:51;30.20;65.00
22418;DHT22;11376;50.932;4.442;2022-07-18T09:33:57;30.30;63.50
22418;DHT22;11376;50.932;4.442;2022-07-18T09:36:24;30.30;64.40
22418;DHT22;11376;50.932;4.442;2022-07-18T09:38:52;30.50;63.80
22418;DHT22;11376;50.932;4.442;2022-07-18T09:41:23;30.50;63.30
22418;DHT22;11376;50.932;4.442;2022-07-18T09:43:49;30.50;62.80
22418;DHT22;11376;50.932;4.442;2022-07-18T09:46:14;30.50;63.10
22418;DHT22;11376;50.932;4.442;2022-07-18T09:48:40;30.60;62.70
22418;DHT22;11376;50.932;4.442;2022-07-18T09:51:07;30.80;61.70
22418;DHT22;11376;50.932;4.442;2022-07-18T09:53:35;31.10;61.70
22418;DHT22;11376;50.932;4.442;2022-07-18T09:58:36;31.30;59.80
22418;DHT22;11376;50.932;4.442;2022-07-18T10:01:04;31.40;59.40
22418;DHT22;11376;50.932;4.442;2022-07-18T10:03:30;31.30;58.80
22418;DHT22;11376;50.932;4.442;2022-07-18T10:05:57;31.30;59.10
22418;DHT22;11376;50.932;4.442;2022-07-18T10:08:25;31.30;59.50
22418;DHT22;11376;50.932;4.442;2022-07-18T10:10:53;31.40;59.20
22418;DHT22;11376;50.932;4.442;2022-07-18T10:13:20;31.70;58.60
22418;DHT22;11376;50.932;4.442;2022-07-18T10:15:48;31.70;57.70
22418;DHT22;11376;50.932;4.442;2022-07-18T10:18:16;31.80;57.50
22418;DHT22;11376;50.932;4.442;2022-07-18T10:23:20;32.00;57.30
22418;DHT22;11376;50.932;4.442;2022-07-18T10:26:24;32.20;58.00
22418;DHT22;11376;50.932;4.442;2022-07-18T10:31:34;32.20;56.20
22418;DHT22;11376;50.932;4.442;2022-07-18T10:39:19;33.00;55.10
22418;DHT22;11376;50.932;4.442;2022-07-18T11:19:17;35.90;47.60
22418;DHT22;11376;50.932;4.442;2022-07-18T11:23:45;38.10;44.10
22418;DHT22;11376;50.932;4.442;2022-07-18T11:26:20;39.40;42.60
22418;DHT22;11376;50.932;4.442;2022-07-18T11:28:47;42.00;39.10
22418;DHT22;11376;50.932;4.442;2022-07-18T11:31:16;44.10;35.30
22418;DHT22;11376;50.932;4.442;2022-07-18T11:33:46;45.50;32.10
22418;DHT22;11376;50.932;4.442;2022-07-18T11:36:14;46.70;30.10
22418;DHT22;11376;50.932;4.442;2022-07-18T11:38:47;48.40;28.50
22418;DHT22;11376;50.932;4.442;2022-07-18T11:41:15;50.30;26.50
22418;DHT22;11376;50.932;4.442;2022-07-18T11:43:43;52.00;24.70
22418;DHT22;11376;50.932;4.442;2022-07-18T11:46:11;52.60;23.00
22418;DHT22;11376;50.932;4.442;2022-07-18T11:48:38;52.20;22.70
22418;DHT22;11376;50.932;4.442;2022-07-18T11:51:10;51.50;22.50
22418;DHT22;11376;50.932;4.442;2022-07-18T11:53:45;49.30;23.40
22418;DHT22;11376;50.932;4.442;2022-07-18T11:56:12;49.90;23.70
22418;DHT22;11376;50.932;4.442;2022-07-18T11:58:40;51.10;22.70
22418;DHT22;11376;50.932;4.442;2022-07-18T12:01:06;53.10;21.70
22418;DHT22;11376;50.932;4.442;2022-07-18T12:03:39;54.90;20.90
22418;DHT22;11376;50.932;4.442;2022-07-18T12:06:12;56.30;20.10
22418;DHT22;11376;50.932;4.442;2022-07-18T12:08:46;56.10;19.30
22418;DHT22;11376;50.932;4.442;2022-07-18T12:11:32;54.40;19.90
22418;DHT22;11376;50.932;4.442;2022-07-18T12:14:01;54.90;19.50
22418;DHT22;11376;50.932;4.442;2022-07-18T12:24:18;60.10;17.20
22418;DHT22;11376;50.932;4.442;2022-07-18T12:26:44;60.80;16.80
22418;DHT22;11376;50.932;4.442;2022-07-18T12:29:10;61.20;16.30
22418;DHT22;11376;50.932;4.442;2022-07-18T12:34:16;58.50;16.50
22418;DHT22;11376;50.932;4.442;2022-07-18T12:36:55;54.90;17.60
22418;DHT22;11376;50.932;4.442;2022-07-18T12:39:30;53.70;18.60
22418;DHT22;11376;50.932;4.442;2022-07-18T12:41:56;53.30;18.60
22418;DHT22;11376;50.932;4.442;2022-07-18T12:44:24;53.40;18.20
22418;DHT22;11376;50.932;4.442;2022-07-18T12:46:49;52.70;18.70
22418;DHT22;11376;50.932;4.442;2022-07-18T12:49:15;53.40;18.10
22418;DHT22;11376;50.932;4.442;2022-07-18T12:51:41;53.60;17.80
22418;DHT22;11376;50.932;4.442;2022-07-18T12:54:06;53.90;17.70
22418;DHT22;11376;50.932;4.442;2022-07-18T12:56:32;53.30;18.00
22418;DHT22;11376;50.932;4.442;2022-07-18T12:58:57;52.60;18.10
22418;DHT22;11376;50.932;4.442;2022-07-18T13:01:23;52.80;18.20
22418;DHT22;11376;50.932;4.442;2022-07-18T13:03:49;53.70;17.90
22418;DHT22;11376;50.932;4.442;2022-07-18T13:06:14;54.90;17.30
22418;DHT22;11376;50.932;4.442;2022-07-18T13:08:41;55.90;17.00
22418;DHT22;11376;50.932;4.442;2022-07-18T13:11:07;55.20;17.20
22418;DHT22;11376;50.932;4.442;2022-07-18T13:13:32;55.30;17.30
22418;DHT22;11376;50.932;4.442;2022-07-18T13:15:58;53.90;17.70
22418;DHT22;11376;50.932;4.442;2022-07-18T13:18:24;53.40;17.90
22418;DHT22;11376;50.932;4.442;2022-07-18T13:20:49;54.00;17.50
22418;DHT22;11376;50.932;4.442;2022-07-18T13:23:15;54.90;17.30
22418;DHT22;11376;50.932;4.442;2022-07-18T13:25:41;55.80;16.90
22418;DHT22;11376;50.932;4.442;2022-07-18T13:28:07;55.20;16.90
22418;DHT22;11376;50.932;4.442;2022-07-18T13:30:33;55.00;17.00
22418;DHT22;11376;50.932;4.442;2022-07-18T13:32:59;54.60;17.00
22418;DHT22;11376;50.932;4.442;2022-07-18T13:35:25;54.40;17.30
22418;DHT22;11376;50.932;4.442;2022-07-18T13:37:50;53.30;17.10
22418;DHT22;11376;50.932;4.442;2022-07-18T13:40:16;52.10;17.20
22418;DHT22;11376;50.932;4.442;2022-07-18T13:42:43;52.70;17.20
22418;DHT22;11376;50.932;4.442;2022-07-18T13:45:10;53.70;17.00
22418;DHT22;11376;50.932;4.442;2022-07-18T13:47:35;54.80;16.40
22418;DHT22;11376;50.932;4.442;2022-07-18T13:50:02;55.20;16.20
22418;DHT22;11376;50.932;4.442;2022-07-18T13:52:27;55.20;16.10
22418;DHT22;11376;50.932;4.442;2022-07-18T13:54:53;54.50;16.50
22418;DHT22;11376;50.932;4.442;2022-07-18T13:57:20;55.10;16.20
22418;DHT22;11376;50.932;4.442;2022-07-18T13:59:46;55.50;16.10
22418;DHT22;11376;50.932;4.442;2022-07-18T14:02:12;55.60;16.50
22418;DHT22;11376;50.932;4.442;2022-07-18T14:04:37;54.10;16.70
22418;DHT22;11376;50.932;4.442;2022-07-18T14:07:03;53.50;17.00
22418;DHT22;11376;50.932;4.442;2022-07-18T14:09:30;54.00;16.80
22418;DHT22;11376;50.932;4.442;2022-07-18T14:11:55;54.50;16.60
22418;DHT22;11376;50.932;4.442;2022-07-18T14:14:21;55.20;16.40
22418;DHT22;11376;50.932;4.442;2022-07-18T14:16:47;54.90;16.70
22418;DHT22;11376;50.932;4.442;2022-07-18T14:19:12;54.40;16.70
22418;DHT22;11376;50.932;4.442;2022-07-18T14:21:38;54.50;16.90
22418;DHT22;11376;50.932;4.442;2022-07-18T14:24:04;55.00;16.70
22418;DHT22;11376;50.932;4.442;2022-07-18T14:26:29;55.50;16.40
22418;DHT22;11376;50.932;4.442;2022-07-18T14:28:55;56.00;16.40
22418;DHT22;11376;50.932;4.442;2022-07-18T14:31:21;56.40;16.10
22418;DHT22;11376;50.932;4.442;2022-07-18T14:33:46;56.10;16.10
22418;DHT22;11376;50.932;4.442;2022-07-18T14:36:14;54.80;16.40
22418;DHT22;11376;50.932;4.442;2022-07-18T14:38:40;53.50;16.80
22418;DHT22;11376;50.932;4.442;2022-07-18T14:41:06;52.90;16.90
22418;DHT22;11376;50.932;4.442;2022-07-18T14:43:32;52.80;17.20
22418;DHT22;11376;50.932;4.442;2022-07-18T14:45:57;53.50;16.80
22418;DHT22;11376;50.932;4.442;2022-07-18T14:48:23;54.20;16.80
22418;DHT22;11376;50.932;4.442;2022-07-18T14:50:48;55.00;16.40
22418;DHT22;11376;50.932;4.442;2022-07-18T14:53:14;55.40;16.10
22418;DHT22;11376;50.932;4.442;2022-07-18T14:55:40;55.30;16.10
22418;DHT22;11376;50.932;4.442;2022-07-18T14:58:06;55.30;16.10
22418;DHT22;11376;50.932;4.442;2022-07-18T15:00:31;55.40;15.90
22418;DHT22;11376;50.932;4.442;2022-07-18T15:02:57;55.40;15.90
22418;DHT22;11376;50.932;4.442;2022-07-18T15:05:22;55.60;16.00
22418;DHT22;11376;50.932;4.442;2022-07-18T15:07:48;55.80;15.90
22418;DHT22;11376;50.932;4.442;2022-07-18T15:10:13;56.00;16.00
22418;DHT22;11376;50.932;4.442;2022-07-18T15:12:40;56.40;15.90
22418;DHT22;11376;50.932;4.442;2022-07-18T15:15:07;56.70;16.00
22418;DHT22;11376;50.932;4.442;2022-07-18T15:17:33;56.20;16.00
22418;DHT22;11376;50.932;4.442;2022-07-18T15:19:58;55.10;16.50
22418;DHT22;11376;50.932;4.442;2022-07-18T15:22:24;54.60;16.40
22418;DHT22;11376;50.932;4.442;2022-07-18T15:24:49;53.30;16.70
22418;DHT22;11376;50.932;4.442;2022-07-18T15:27:15;53.40;17.00
22418;DHT22;11376;50.932;4.442;2022-07-18T15:29:41;53.80;16.80
22418;DHT22;11376;50.932;4.442;2022-07-18T15:32:06;54.30;16.50
22418;DHT22;11376;50.932;4.442;2022-07-18T15:34:38;54.60;16.40
22418;DHT22;11376;50.932;4.442;2022-07-18T15:37:04;54.60;16.50
22418;DHT22;11376;50.932;4.442;2022-07-18T15:39:30;54.60;16.30
22418;DHT22;11376;50.932;4.442;2022-07-18T15:41:56;54.50;16.30
22418;DHT22;11376;50.932;4.442;2022-07-18T15:44:21;54.20;16.70
22418;DHT22;11376;50.932;4.442;2022-07-18T15:46:47;53.90;16.90
22418;DHT22;11376;50.932;4.442;2022-07-18T15:49:13;53.40;16.90
22418;DHT22;11376;50.932;4.442;2022-07-18T15:51:38;52.70;17.10
22418;DHT22;11376;50.932;4.442;2022-07-18T15:54:08;51.90;17.40
22418;DHT22;11376;50.932;4.442;2022-07-18T15:56:33;51.50;17.60
22418;DHT22;11376;50.932;4.442;2022-07-18T15:58:59;51.20;17.80
22418;DHT22;11376;50.932;4.442;2022-07-18T16:01:24;51.40;17.60
22418;DHT22;11376;50.932;4.442;2022-07-18T16:03:50;51.50;17.30
22418;DHT22;11376;50.932;4.442;2022-07-18T16:06:16;51.40;17.50
22418;DHT22;11376;50.932;4.442;2022-07-18T16:08:41;51.40;17.70
22418;DHT22;11376;50.932;4.442;2022-07-18T16:11:07;51.40;18.00
22418;DHT22;11376;50.932;4.442;2022-07-18T16:13:33;51.10;18.00
22418;DHT22;11376;50.932;4.442;2022-07-18T16:15:58;51.20;18.00
22418;DHT22;11376;50.932;4.442;2022-07-18T16:18:24;51.30;17.80
22418;DHT22;11376;50.932;4.442;2022-07-18T16:20:49;51.10;17.90
22418;DHT22;11376;50.932;4.442;2022-07-18T16:23:15;51.20;18.00
22418;DHT22;11376;50.932;4.442;2022-07-18T16:25:41;51.40;17.90
22418;DHT22;11376;50.932;4.442;2022-07-18T16:28:08;51.80;17.60
22418;DHT22;11376;50.932;4.442;2022-07-18T16:30:34;52.00;17.60
22418;DHT22;11376;50.932;4.442;2022-07-18T16:33:00;52.10;17.60